createdAt,value
2022-08-22T00:00:13.367Z,23.54
2022-08-22T00:02:46.056Z,27.17
2022-08-22T00:02:59.456Z,23.71
2022-08-22T00:03:00.125Z,27.80
2022-08-22T00:03:10.195Z,26.85
2022-08-22T00:05:59.364Z,23.41
2022-08-22T00:08:41.929Z,23.44
2022-08-22T00:11:34.824Z,23.44
2022-08-22T00:14:26.011Z,23.41
2022-08-22T00:17:11.395Z,23.19
2022-08-22T00:20:18.761Z,23.14
2022-08-22T00:23:02.517Z,23.09
2022-08-22T00:25:44.682Z,23.08
2022-08-22T00:28:21.048Z,23.01
2022-08-22T00:31:08.464Z,23.13
2022-08-22T00:33:45.492Z,23.24
2022-08-22T00:36:30.447Z,23.19
2022-08-22T00:39:10.332Z,23.38
2022-08-22T00:41:56.712Z,23.06
2022-08-22T00:44:35.942Z,22.85
2022-08-22T00:47:17.316Z,22.93
2022-08-22T00:50:17.745Z,22.84
2022-08-22T00:53:12.526Z,22.75
2022-08-22T00:55:48.699Z,22.82
2022-08-22T00:58:33.468Z,22.83
2022-08-22T01:01:07.238Z,22.76
2022-08-22T01:04:04.460Z,22.76
2022-08-22T01:06:53.184Z,22.72
2022-08-22T01:09:38.740Z,22.68
2022-08-22T01:12:27.374Z,22.56
2022-08-22T01:15:03.184Z,22.48
2022-08-22T01:17:54.969Z,22.65
2022-08-22T01:20:35.568Z,22.36
2022-08-22T01:23:36.655Z,22.43
2022-08-22T01:26:26.804Z,22.31
2022-08-22T01:29:08.510Z,22.23
2022-08-22T01:32:09.797Z,22.28
2022-08-22T01:34:57.251Z,22.18
2022-08-22T01:37:47.461Z,22.04
2022-08-22T01:40:36.827Z,22.10
2022-08-22T01:44:10.517Z,22.11
2022-08-22T01:47:17.961Z,22.14
2022-08-22T01:50:18.478Z,22.21
2022-08-22T01:52:51.278Z,22.10
2022-08-22T01:55:36.822Z,22.03
2022-08-22T01:58:17.880Z,21.96
2022-08-22T02:01:11.308Z,21.98
2022-08-22T02:04:01.162Z,22.01
2022-08-22T02:06:45.568Z,21.90
2022-08-22T02:09:23.893Z,21.88
2022-08-22T02:12:21.912Z,21.81
2022-08-22T02:15:19.368Z,21.88
2022-08-22T02:18:09.303Z,21.93
2022-08-22T02:20:48.653Z,21.88
2022-08-22T02:23:19.503Z,21.82
2022-08-22T02:25:53.127Z,21.76
2022-08-22T02:28:38.116Z,21.71
2022-08-22T02:31:20.352Z,21.67
2022-08-22T02:33:59.232Z,21.54
2022-08-22T02:36:33.312Z,21.46
2022-08-22T02:39:24.123Z,21.37
2022-08-22T02:42:13.038Z,21.39
2022-08-22T02:44:53.166Z,21.42
2022-08-22T02:47:47.539Z,21.51
2022-08-22T02:50:17.713Z,21.47
2022-08-22T02:53:09.366Z,21.33
2022-08-22T02:56:15.090Z,21.37
2022-08-22T02:59:14.718Z,21.45
2022-08-22T03:01:45.618Z,21.50
2022-08-22T03:04:26.706Z,21.44
2022-08-22T03:07:20.686Z,21.48
2022-08-22T03:09:51.312Z,21.50
2022-08-22T03:12:40.476Z,21.57
2022-08-22T03:15:40.641Z,21.47
2022-08-22T03:18:33.032Z,21.51
2022-08-22T03:21:34.696Z,21.55
2022-08-22T03:24:12.191Z,21.57
2022-08-22T03:27:03.166Z,21.49
2022-08-22T03:29:43.400Z,21.48
2022-08-22T03:32:15.222Z,21.55
2022-08-22T03:35:02.167Z,21.53
2022-08-22T03:37:40.658Z,21.55
2022-08-22T03:40:20.145Z,21.66
2022-08-22T03:43:16.270Z,21.68
2022-08-22T03:46:05.527Z,21.65
2022-08-22T03:49:00.068Z,21.67
2022-08-22T03:51:32.639Z,21.71
2022-08-22T03:54:24.821Z,21.68
2022-08-22T03:57:32.503Z,21.68
2022-08-22T04:00:12.111Z,21.69
2022-08-22T04:02:45.191Z,21.73
2022-08-22T04:05:30.915Z,21.80
2022-08-22T04:08:13.283Z,21.87
2022-08-22T04:10:44.493Z,22.04
2022-08-22T04:13:50.107Z,22.02
2022-08-22T04:16:48.090Z,22.03
2022-08-22T04:19:48.048Z,21.94
2022-08-22T04:22:33.625Z,22.09
2022-08-22T04:25:12.316Z,22.06
2022-08-22T04:27:53.289Z,22.17
2022-08-22T04:30:26.447Z,22.27
2022-08-22T04:33:02.777Z,22.08
2022-08-22T04:35:57.004Z,22.17
2022-08-22T04:39:05.035Z,22.33
2022-08-22T04:41:44.717Z,22.29
2022-08-22T04:44:19.466Z,22.39
2022-08-22T04:47:02.608Z,22.48
2022-08-22T04:49:44.384Z,22.55
2022-08-22T04:52:18.757Z,22.65
2022-08-22T04:55:01.202Z,22.85
2022-08-22T04:57:52.087Z,22.97
2022-08-22T05:00:19.700Z,22.93
2022-08-22T05:02:50.860Z,23.10
2022-08-22T05:05:24.784Z,23.14
2022-08-22T05:07:57.484Z,23.20
2022-08-22T05:10:28.032Z,23.39
2022-08-22T05:13:39.479Z,23.48
2022-08-22T05:16:15.154Z,23.51
2022-08-22T05:18:55.004Z,23.52
2022-08-22T05:21:27.204Z,23.50
2022-08-22T05:24:01.958Z,23.64
2022-08-22T05:26:35.858Z,23.69
2022-08-22T05:29:11.011Z,23.76
2022-08-22T05:31:49.688Z,23.73
2022-08-22T05:34:25.113Z,23.88
2022-08-22T05:37:00.514Z,24.05
2022-08-22T05:39:30.074Z,24.10
2022-08-22T05:42:01.640Z,24.12
2022-08-22T05:44:34.304Z,24.24
2022-08-22T05:47:03.471Z,24.35
2022-08-22T05:49:39.241Z,24.37
2022-08-22T05:52:19.764Z,24.45
2022-08-22T05:55:13.523Z,24.43
2022-08-22T05:57:47.315Z,24.50
2022-08-22T06:00:28.589Z,24.57
2022-08-22T06:03:18.020Z,24.74
2022-08-22T06:05:51.627Z,24.77
2022-08-22T06:08:21.805Z,24.80
2022-08-22T06:10:57.945Z,24.86
2022-08-22T06:13:42.085Z,24.91
2022-08-22T06:16:22.619Z,24.99
2022-08-22T06:18:52.504Z,25.01
2022-08-22T06:21:19.762Z,24.99
2022-08-22T06:24:00.209Z,25.01
2022-08-22T06:26:34.772Z,25.03
2022-08-22T06:29:03.560Z,25.12
2022-08-22T06:31:38.075Z,25.20
2022-08-22T06:34:12.393Z,25.16
2022-08-22T06:36:43.856Z,25.28
2022-08-22T06:39:16.631Z,25.31
2022-08-22T06:41:55.433Z,25.40
2022-08-22T06:44:54.626Z,25.40
2022-08-22T06:47:28.840Z,25.54
2022-08-22T06:50:05.854Z,25.74
2022-08-22T06:52:39.195Z,25.75
2022-08-22T06:55:09.478Z,25.80
2022-08-22T06:57:55.190Z,25.92
2022-08-22T07:00:22.947Z,25.91
2022-08-22T07:02:57.959Z,26.04
2022-08-22T07:05:29.164Z,26.10
2022-08-22T07:07:57.313Z,26.17
2022-08-22T07:10:25.970Z,26.23
2022-08-22T07:12:56.799Z,26.31
2022-08-22T07:15:37.708Z,26.45
2022-08-22T07:18:09.119Z,26.49
2022-08-22T07:20:45.396Z,26.59
2022-08-22T07:23:33.384Z,26.66
2022-08-22T07:26:06.692Z,26.75
2022-08-22T07:28:51.484Z,26.82
2022-08-22T07:31:37.265Z,26.96
2022-08-22T07:34:23.823Z,27.01
2022-08-22T07:37:06.859Z,27.12
2022-08-22T07:39:47.217Z,27.22
2022-08-22T07:42:17.583Z,27.28
2022-08-22T07:45:01.184Z,27.39
2022-08-22T07:48:08.773Z,27.47
2022-08-22T07:50:43.743Z,27.56
2022-08-22T07:53:34.402Z,27.63
2022-08-22T07:56:07.171Z,27.74
2022-08-22T07:58:39.797Z,27.82
2022-08-22T08:01:15.718Z,27.84
2022-08-22T08:03:49.595Z,28.01
2022-08-22T08:06:17.389Z,28.05
2022-08-22T08:08:45.580Z,28.14
2022-08-22T08:11:17.184Z,28.27
2022-08-22T08:13:50.333Z,28.32
2022-08-22T08:16:21.931Z,28.51
2022-08-22T08:18:53.145Z,28.58
2022-08-22T08:21:36.933Z,28.70
2022-08-22T08:24:07.961Z,28.69
2022-08-22T08:27:02.627Z,28.80
2022-08-22T08:29:32.239Z,28.84
2022-08-22T08:32:01.194Z,28.89
2022-08-22T08:34:35.480Z,29.01
2022-08-22T08:37:12.995Z,29.03
2022-08-22T08:39:50.864Z,29.20
2022-08-22T08:42:59.974Z,29.26
2022-08-22T08:45:38.673Z,29.32
2022-08-22T08:48:54.359Z,29.30
2022-08-22T08:51:46.370Z,29.47
2022-08-22T08:54:16.707Z,29.49
2022-08-22T08:57:12.690Z,29.56
2022-08-22T09:00:14.505Z,29.64
2022-08-22T09:02:44.891Z,29.66
2022-08-22T09:05:43.254Z,29.71
2022-08-22T09:08:56.019Z,29.81
2022-08-22T09:12:04.731Z,29.90
2022-08-22T09:15:25.691Z,29.94
2022-08-22T09:18:08.658Z,30.07
2022-08-22T09:20:56.355Z,30.13
2022-08-22T09:23:53.307Z,30.20
2022-08-22T09:26:23.799Z,30.23
2022-08-22T09:29:12.143Z,30.27
2022-08-22T09:31:59.686Z,30.19
2022-08-22T09:34:57.017Z,30.33
2022-08-22T09:37:53.226Z,30.25
2022-08-22T09:40:31.348Z,30.32
2022-08-22T09:43:06.615Z,30.31
2022-08-22T09:45:50.078Z,30.38
2022-08-22T09:48:29.922Z,30.38
2022-08-22T09:51:32.001Z,30.39
2022-08-22T09:54:31.260Z,30.43
2022-08-22T09:57:10.227Z,30.45
2022-08-22T09:59:58.121Z,30.57
2022-08-22T10:02:44.256Z,30.66
2022-08-22T10:05:39.467Z,30.74
2022-08-22T10:08:14.482Z,30.91
2022-08-22T10:11:13.290Z,30.87
2022-08-22T10:14:04.790Z,30.93
2022-08-22T10:16:43.326Z,30.97
2022-08-22T10:19:28.732Z,31.01
2022-08-22T10:22:17.090Z,31.03
2022-08-22T10:25:23.205Z,31.11
2022-08-22T10:28:15.209Z,31.14
2022-08-22T10:31:08.180Z,31.18
2022-08-22T10:33:42.584Z,31.20
2022-08-22T10:36:23.798Z,31.28
2022-08-22T10:39:00.127Z,31.30
2022-08-22T10:41:50.835Z,31.46
2022-08-22T10:44:53.758Z,31.47
2022-08-22T10:47:28.783Z,31.47
2022-08-22T10:50:10.722Z,31.52
2022-08-22T10:52:49.089Z,31.57
2022-08-22T10:55:27.130Z,31.61
2022-08-22T10:58:02.241Z,31.65
2022-08-22T11:00:46.013Z,31.63
2022-08-22T11:03:34.774Z,31.73
2022-08-22T11:06:31.391Z,31.78
2022-08-22T11:09:00.159Z,31.78
2022-08-22T11:11:33.474Z,31.80
2022-08-22T11:14:22.487Z,31.85
2022-08-22T11:17:11.964Z,31.90
2022-08-22T11:20:00.276Z,31.91
2022-08-22T11:22:42.175Z,31.91
2022-08-22T11:25:26.882Z,31.98
2022-08-22T11:28:22.346Z,32.02
2022-08-22T11:31:07.232Z,32.07
2022-08-22T11:33:48.401Z,32.10
2022-08-22T11:36:37.557Z,32.14
2022-08-22T11:39:27.742Z,32.12
2022-08-22T11:42:07.391Z,32.07
2022-08-22T11:44:50.300Z,32.16
2022-08-22T11:47:26.710Z,32.16
2022-08-22T11:50:35.345Z,32.19
2022-08-22T11:53:26.824Z,32.11
2022-08-22T11:56:33.364Z,32.14
2022-08-22T11:59:22.830Z,32.13
2022-08-22T12:02:00.839Z,32.07
2022-08-22T12:04:42.680Z,32.04
2022-08-22T12:07:34.752Z,32.10
2022-08-22T12:10:27.352Z,32.19
2022-08-22T12:13:04.940Z,32.21
2022-08-22T12:16:09.530Z,32.24
2022-08-22T12:18:52.757Z,32.36
2022-08-22T12:21:29.679Z,32.39
2022-08-22T12:24:19.441Z,32.39
2022-08-22T12:26:48.440Z,32.41
2022-08-22T12:29:49.197Z,32.47
2022-08-22T12:32:49.386Z,32.49
2022-08-22T12:35:45.852Z,32.49
2022-08-22T12:38:38.520Z,32.52
2022-08-22T12:41:46.848Z,32.56
2022-08-22T12:44:33.721Z,32.59
2022-08-22T12:47:34.438Z,32.55
2022-08-22T12:50:26.398Z,32.58
2022-08-22T12:53:02.080Z,32.54
2022-08-22T12:55:43.910Z,32.66
2022-08-22T12:58:23.230Z,32.68
2022-08-22T13:00:52.611Z,32.68
2022-08-22T13:03:33.004Z,32.71
2022-08-22T13:06:24.917Z,32.76
2022-08-22T13:08:53.528Z,32.70
2022-08-22T13:11:23.586Z,32.74
2022-08-22T13:13:57.254Z,32.77
2022-08-22T13:16:26.219Z,32.89
2022-08-22T13:19:07.387Z,32.79
2022-08-22T13:21:43.520Z,32.78
2022-08-22T13:24:22.736Z,32.66
2022-08-22T13:27:15.009Z,32.74
2022-08-22T13:29:49.870Z,32.81
2022-08-22T13:32:46.672Z,32.83
2022-08-22T13:35:26.080Z,32.83
2022-08-22T13:38:04.803Z,32.84
2022-08-22T13:40:34.092Z,32.86
2022-08-22T13:43:11.891Z,32.88
2022-08-22T13:45:48.505Z,32.85
2022-08-22T13:48:16.274Z,32.79
2022-08-22T13:51:22.539Z,32.89
2022-08-22T13:54:02.324Z,32.84
2022-08-22T13:56:50.868Z,32.85
2022-08-22T13:59:50.907Z,32.88
2022-08-22T14:02:43.364Z,32.90
2022-08-22T14:05:46.443Z,32.87
2022-08-22T14:08:32.407Z,32.87
2022-08-22T14:11:30.902Z,32.87
2022-08-22T14:14:02.474Z,32.79
2022-08-22T14:16:38.816Z,32.79
2022-08-22T14:19:14.646Z,32.84
2022-08-22T14:22:06.548Z,32.87
2022-08-22T14:24:45.451Z,32.78
2022-08-22T14:27:27.605Z,32.80
2022-08-22T14:30:13.568Z,32.70
2022-08-22T14:33:17.601Z,32.74
2022-08-22T14:35:52.813Z,32.76
2022-08-22T14:38:37.768Z,32.72
2022-08-22T14:41:26.989Z,32.61
2022-08-22T14:44:02.345Z,32.70
2022-08-22T14:46:41.975Z,32.69
2022-08-22T14:49:18.834Z,32.72
2022-08-22T14:51:55.277Z,32.67
2022-08-22T14:54:29.103Z,32.69
2022-08-22T14:56:59.209Z,32.69
2022-08-22T14:59:32.424Z,32.70
2022-08-22T15:02:10.584Z,32.69
2022-08-22T15:04:42.266Z,32.68
2022-08-22T15:07:11.088Z,32.62
2022-08-22T15:09:52.321Z,32.67
2022-08-22T15:12:29.010Z,32.51
2022-08-22T15:15:03.111Z,32.37
2022-08-22T15:17:51.069Z,32.41
2022-08-22T15:20:38.263Z,32.37
2022-08-22T15:23:23.028Z,32.34
2022-08-22T15:26:03.973Z,32.36
2022-08-22T15:28:53.333Z,32.30
2022-08-22T15:31:22.424Z,32.27
2022-08-22T15:33:51.743Z,32.08
2022-08-22T15:36:25.102Z,32.17
2022-08-22T15:39:27.669Z,32.22
2022-08-22T15:41:56.355Z,32.16
2022-08-22T15:44:33.055Z,32.03
2022-08-22T15:47:28.473Z,31.97
2022-08-22T15:50:05.402Z,32.01
2022-08-22T15:52:59.008Z,31.93
2022-08-22T15:55:34.542Z,31.91
2022-08-22T15:58:09.090Z,31.87
2022-08-22T16:00:45.133Z,31.85
2022-08-22T16:03:25.871Z,31.76
2022-08-22T16:05:55.885Z,31.77
2022-08-22T16:08:52.735Z,31.75
2022-08-22T16:11:33.791Z,31.66
2022-08-22T16:14:21.247Z,31.64
2022-08-22T16:17:05.314Z,31.50
2022-08-22T16:19:35.473Z,31.44
2022-08-22T16:22:07.409Z,31.46
2022-08-22T16:24:58.783Z,31.44
2022-08-22T16:27:28.060Z,31.37
2022-08-22T16:30:08.363Z,31.31
2022-08-22T16:32:36.592Z,31.24
2022-08-22T16:35:04.453Z,31.19
2022-08-22T16:37:46.938Z,31.21
2022-08-22T16:40:21.375Z,31.14
2022-08-22T16:43:10.743Z,31.18
2022-08-22T16:45:45.772Z,31.04
2022-08-22T16:48:27.764Z,30.92
2022-08-22T16:51:05.541Z,31.02
2022-08-22T16:53:39.125Z,31.01
2022-08-22T16:56:51.740Z,30.97
2022-08-22T16:59:38.593Z,30.92
2022-08-22T17:02:35.424Z,30.89
2022-08-22T17:05:45.624Z,30.90
2022-08-22T17:08:34.335Z,30.78
2022-08-22T17:11:20.674Z,30.81
2022-08-22T17:14:03.839Z,30.74
2022-08-22T17:16:54.932Z,30.77
2022-08-22T17:20:03.819Z,30.74
2022-08-22T17:23:00.240Z,30.64
2022-08-22T17:25:38.298Z,30.58
2022-08-22T17:28:13.644Z,30.56
2022-08-22T17:30:46.595Z,30.51
2022-08-22T17:33:52.286Z,30.52
2022-08-22T17:36:31.775Z,30.48
2022-08-22T17:39:36.266Z,30.41
2022-08-22T17:42:25.724Z,30.34
2022-08-22T17:45:03.739Z,30.31
2022-08-22T17:47:40.249Z,30.23
2022-08-22T17:50:21.175Z,30.17
2022-08-22T17:53:16.294Z,30.28
2022-08-22T17:56:19.467Z,30.27
2022-08-22T17:58:59.953Z,30.20
2022-08-22T18:01:42.646Z,30.17
2022-08-22T18:04:20.217Z,30.11
2022-08-22T18:07:00.883Z,30.08
2022-08-22T18:09:40.425Z,30.05
2022-08-22T18:12:17.903Z,30.04
2022-08-22T18:14:59.530Z,29.94
2022-08-22T18:17:40.284Z,29.93
2022-08-22T18:20:23.133Z,29.91
2022-08-22T18:23:39.197Z,29.94
2022-08-22T18:26:13.944Z,29.91
2022-08-22T18:29:11.373Z,29.84
2022-08-22T18:32:03.958Z,29.78
2022-08-22T18:34:49.065Z,29.79
2022-08-22T18:37:46.892Z,29.77
2022-08-22T18:40:51.508Z,29.70
2022-08-22T18:43:37.364Z,29.65
2022-08-22T18:46:27.018Z,29.72
2022-08-22T18:49:14.654Z,29.62
2022-08-22T18:51:42.683Z,29.60
2022-08-22T18:54:12.675Z,29.56
2022-08-22T18:56:50.848Z,29.49
2022-08-22T18:59:21.203Z,29.46
2022-08-22T19:02:12.187Z,29.47
2022-08-22T19:05:13.413Z,29.44
2022-08-22T19:07:47.128Z,29.36
2022-08-22T19:10:20.986Z,29.34
2022-08-22T19:13:06.846Z,29.48
2022-08-22T19:15:48.254Z,29.32
2022-08-22T19:18:31.601Z,29.19
2022-08-22T19:21:32.396Z,29.22
2022-08-22T19:24:00.842Z,29.06
2022-08-22T19:26:37.044Z,29.10
2022-08-22T19:29:30.082Z,29.12
2022-08-22T19:32:02.051Z,28.97
2022-08-22T19:34:35.320Z,28.88
2022-08-22T19:37:32.391Z,28.92
2022-08-22T19:40:02.112Z,28.78
2022-08-22T19:42:36.603Z,28.80
2022-08-22T19:45:09.798Z,28.80
2022-08-22T19:47:40.769Z,28.86
2022-08-22T19:50:18.396Z,28.86
2022-08-22T19:53:22.723Z,28.71
2022-08-22T19:56:22.044Z,28.80
2022-08-22T19:58:54.274Z,28.68
2022-08-22T20:01:56.586Z,28.68
2022-08-22T20:04:35.149Z,28.67
2022-08-22T20:07:24.232Z,28.63
2022-08-22T20:10:04.492Z,28.57
2022-08-22T20:12:44.763Z,28.52
2022-08-22T20:15:26.100Z,28.53
2022-08-22T20:20:59.147Z,28.54
2022-08-22T20:23:32.349Z,28.43
2022-08-22T20:26:00.746Z,28.55
2022-08-22T20:28:37.216Z,28.35
2022-08-22T20:31:12.525Z,28.31
2022-08-22T20:33:43.393Z,28.37
2022-08-22T20:36:28.500Z,28.21
2022-08-22T20:39:06.002Z,28.28
2022-08-22T20:41:40.684Z,28.28
2022-08-22T20:44:12.753Z,28.26
2022-08-22T20:46:46.357Z,28.29
2022-08-22T20:49:30.548Z,28.26
2022-08-22T20:52:04.057Z,28.26
2022-08-22T20:54:34.717Z,28.22
2022-08-22T20:57:18.750Z,28.18
2022-08-22T21:00:13.004Z,28.13
2022-08-22T21:03:22.467Z,28.15
2022-08-22T21:05:49.757Z,28.03
2022-08-22T21:08:24.559Z,28.06
2022-08-22T21:11:24.976Z,28.02
2022-08-22T21:13:53.656Z,27.93
2022-08-22T21:16:33.581Z,27.92
2022-08-22T21:19:04.531Z,27.85
2022-08-22T21:21:34.743Z,27.78
2022-08-22T21:24:07.990Z,27.79
2022-08-22T21:26:39.225Z,27.70
2022-08-22T21:29:09.234Z,27.65
2022-08-22T21:31:49.737Z,27.70
2022-08-22T21:34:41.263Z,27.74
2022-08-22T21:37:14.816Z,27.66
2022-08-22T21:39:46.206Z,27.59
2022-08-22T21:42:31.348Z,27.54
2022-08-22T21:45:08.250Z,27.48
2022-08-22T21:47:38.874Z,27.44
2022-08-22T21:50:21.131Z,27.38
2022-08-22T21:52:56.000Z,27.45
2022-08-22T21:55:37.382Z,27.54
2022-08-22T21:58:36.046Z,27.44
2022-08-22T22:01:31.849Z,27.48
2022-08-22T22:03:59.917Z,27.54
2022-08-22T22:06:27.466Z,27.37
2022-08-22T22:08:55.437Z,27.35
2022-08-22T22:11:22.960Z,27.31
2022-08-22T22:13:51.016Z,27.35
2022-08-22T22:16:25.389Z,27.28
2022-08-22T22:18:53.048Z,27.35
2022-08-22T22:21:20.543Z,27.24
2022-08-22T22:23:49.534Z,27.06
2022-08-22T22:26:17.050Z,26.98
2022-08-22T22:28:50.494Z,27.08
2022-08-22T22:31:19.309Z,27.07
2022-08-22T22:33:46.731Z,27.22
2022-08-22T22:36:18.524Z,27.15
2022-08-22T22:38:46.282Z,27.02
2022-08-22T22:41:13.802Z,26.87
2022-08-22T22:43:41.070Z,26.84
2022-08-22T22:46:08.885Z,26.76
2022-08-22T22:48:36.262Z,26.69
2022-08-22T22:51:09.195Z,26.66
2022-08-22T22:53:40.362Z,26.62
2022-08-22T22:56:13.389Z,26.52
2022-08-22T22:58:42.274Z,26.54
2022-08-22T23:01:21.218Z,26.61
2022-08-22T23:03:53.967Z,26.57
2022-08-22T23:06:23.953Z,26.56
2022-08-22T23:08:51.529Z,26.42
2022-08-22T23:11:25.455Z,26.32
2022-08-22T23:13:53.332Z,26.21
2022-08-22T23:16:26.579Z,26.13
2022-08-22T23:18:55.446Z,26.03
2022-08-22T23:21:30.245Z,25.94
2022-08-22T23:23:59.441Z,25.92
2022-08-22T23:26:27.320Z,25.92
2022-08-22T23:28:54.589Z,25.81
2022-08-22T23:31:32.645Z,25.78
2022-08-22T23:34:09.252Z,25.78
2022-08-22T23:36:37.594Z,25.64
2022-08-22T23:39:06.500Z,25.65
2022-08-22T23:41:34.001Z,25.52
2022-08-22T23:44:01.269Z,25.48
2022-08-22T23:46:28.503Z,25.39
2022-08-22T23:48:58.963Z,25.36
2022-08-22T23:51:26.640Z,25.14
2022-08-22T23:53:55.900Z,25.20
2022-08-22T23:56:32.681Z,25.05
2022-08-22T23:59:01.899Z,25.17
